You are not logged in, Click here to log in
ICAO: ROAH Country: 日本沖繩縣那霸市
Latitude: 26.2064 Longitude: 127.647
Total Arrivals: 258 Total Departures: 237
Latest Arrival: HJN127 (RCTP-ROAH)鈺友. 陳 Latest Departure: GE681 (ROAH-RCTP)Jason. Li
Scenery:
METAR : ROAH 270430Z 18011KT 9999 FEW010 FEW020TCU BKN150 30/27 Q1004

那覇空港OKA